WetterOnline ( http://www.wetteronline.ch )

Wetter aktuell Milesovka

Aktuelles Wetter: Milesovka (836m)

6-stündlich | Neueste Meldungen
Ortszeit Temperatur Wetter
So, 17.02. 19:00 7.7° C leicht bewölkt
So, 17.02. 13:00 12.7° C fast wolkenlos
So, 17.02. 7:00 6.9° C leicht bewölkt
So, 17.02. 1:00 7.3° C wolkenlos
Sa, 16.02. 19:00 6.5° C wolkenlos
Sa, 16.02. 13:00 10.3° C fast wolkenlos
Sa, 16.02. 7:00 4.7° C fast wolkenlos
Sa, 16.02. 1:00 7.4° C leicht bewölkt
Ortszeit Temperatur Wetter
Mo, 18.02. 0:00 6.0° C leicht bewölkt
So, 17.02. 23:00 5.9° C leicht bewölkt
So, 17.02. 22:00 5.6° C leicht bewölkt
So, 17.02. 21:00 6.2° C leicht bewölkt
So, 17.02. 20:00 6.2° C leicht bewölkt
So, 17.02. 19:00 7.7° C leicht bewölkt
Ortszeit Relative Feuchte Sichtweite
So, 17.02. 19:00 51% 60 km
So, 17.02. 13:00 35% 55 km
So, 17.02. 7:00 34% 60 km
So, 17.02. 1:00 33% 65 km
Sa, 16.02. 19:00 60% 50 km
Sa, 16.02. 13:00 39% 65 km
Sa, 16.02. 7:00 65% 65 km
Sa, 16.02. 1:00 53% 60 km
Ortszeit Relative Feuchte Sichtweite
Mo, 18.02. 0:00 50% 35 km
So, 17.02. 23:00 57% 30 km
So, 17.02. 22:00 70% 35 km
So, 17.02. 21:00 68% 40 km
So, 17.02. 20:00 68% 45 km
So, 17.02. 19:00 51% 60 km
Ortszeit Niederschlagsmenge Niederschlagsart
So, 17.02. 19:00 0.0 l/m2 in 12 Std. -
So, 17.02. 13:00 0.0 l/m2 in 6 Std. -
So, 17.02. 7:00 0.0 l/m2 in 12 Std. -
So, 17.02. 1:00 0.0 l/m2 in 6 Std. -
Sa, 16.02. 19:00 0.0 l/m2 in 12 Std. -
Sa, 16.02. 13:00 0.0 l/m2 in 6 Std. -
Sa, 16.02. 7:00 0.0 l/m2 in 12 Std. -
Sa, 16.02. 1:00 0.0 l/m2 in 6 Std. -
Ortszeit Niederschlagsmenge Niederschlagsart
Mo, 18.02. 0:00 keine Meldung -
So, 17.02. 23:00 keine Meldung -
So, 17.02. 22:00 keine Meldung -
So, 17.02. 21:00 keine Meldung -
So, 17.02. 20:00 keine Meldung -
So, 17.02. 19:00 keine Meldung -
Ortszeit Stärke Spitze Richtung
km/h Bft. km/h Grad Sektor
So, 17.02. 19:00 25 4 - 220° SW
So, 17.02. 13:00 14 3 - 230° SW
So, 17.02. 7:00 7 2 - 210° SW
So, 17.02. 1:00 32 5 - 290° W
Sa, 16.02. 19:00 29 5 40 230° SW
Sa, 16.02. 13:00 25 4 40 230° SW
Sa, 16.02. 7:00 29 5 - 220° SW
Sa, 16.02. 1:00 18 3 - 250° W
Ortszeit Stärke Spitze Richtung
km/h Bft. km/h Grad Sektor
Mo, 18.02. 0:00 32 5 - 230° SW
So, 17.02. 23:00 29 5 - 230° SW
So, 17.02. 22:00 25 4 - 220° SW
So, 17.02. 21:00 25 4 - 220° SW
So, 17.02. 20:00 22 4 - 210° SW
So, 17.02. 19:00 25 4 - 220° SW
Ortszeit Untergrenze Bedeckung Gattung
total tief tief mittel hoch
So, 17.02. 19:00 8100 m 6/8 0/8 - - Ci
So, 17.02. 13:00 9000 m 1/8 0/8 - - Ci
So, 17.02. 7:00 9000 m 3/8 0/8 - - Ci
So, 17.02. 1:00 - 0/8 0/8 - - -
Sa, 16.02. 19:00 - 0/8 0/8 - - -
Sa, 16.02. 13:00 9000 m 1/8 0/8 - - Ci
Sa, 16.02. 7:00 9000 m 1/8 0/8 - - Ci
Sa, 16.02. 1:00 8700 m 3/8 0/8 - - Ci
Ortszeit Bedeckungsgrad in Achtel und Wolkenuntergrenze
Mo, 18.02. 0:00 5(8100m)
So, 17.02. 23:00 7(7200m)
So, 17.02. 22:00 7(7500m)
So, 17.02. 21:00 7(8100m)
So, 17.02. 20:00 6(8400m)
So, 17.02. 19:00 6(8100m)
Ortszeit Stationsdruck (hPa) Tendenz (hPa in 3 Std.)
So, 17.02. 19:00 926 - 0,4
So, 17.02. 13:00 928 - 0,7
So, 17.02. 7:00 928 + 0,1
So, 17.02. 1:00 928 - 0,5
Sa, 16.02. 19:00 929 - 0,1
Sa, 16.02. 13:00 931 - 0,5
Sa, 16.02. 7:00 931 - 0,3
Sa, 16.02. 1:00 933 - 0,9
Ortszeit Stationsdruck (hPa) Tendenz (hPa in 3 Std.)
Mo, 18.02. 0:00 926 - 0,5
So, 17.02. 23:00 926 - 0,4
So, 17.02. 22:00 926 - 0,3
So, 17.02. 21:00 926 - 0,4
So, 17.02. 20:00 926 - 0,1
So, 17.02. 19:00 926 - 0,4
Ortszeit Schneehöhe (cm)
So, 17.02. 19:00 20
So, 17.02. 13:00 -
So, 17.02. 7:00 20
So, 17.02. 1:00 -
Sa, 16.02. 19:00 20
Sa, 16.02. 13:00 -
Sa, 16.02. 7:00 20
Sa, 16.02. 1:00 -
Ortszeit Schneehöhe (cm)
Mo, 18.02. 0:00 -
So, 17.02. 23:00 -
So, 17.02. 22:00 -
So, 17.02. 21:00 -
So, 17.02. 20:00 -
So, 17.02. 19:00 20
Link zu dieser Seite / Seite empfehlen

Das Wetter in ...